sensor_id;sensor_type;location;lat;lon;timestamp;P1;durP1;ratioP1;P2;durP2;ratioP2
24407;SDS011;12542;50.924;4.516;2023-04-15T00:01:26;15.48;;;7.90;;
24407;SDS011;12542;50.924;4.516;2023-04-15T00:03:53;11.85;;;6.88;;
24407;SDS011;12542;50.924;4.516;2023-04-15T00:06:22;17.67;;;7.93;;
24407;SDS011;12542;50.924;4.516;2023-04-15T00:08:48;10.05;;;5.22;;
24407;SDS011;12542;50.924;4.516;2023-04-15T00:11:15;10.85;;;6.05;;
24407;SDS011;12542;50.924;4.516;2023-04-15T00:13:41;9.65;;;5.68;;
24407;SDS011;12542;50.924;4.516;2023-04-15T00:16:07;10.75;;;5.68;;
24407;SDS011;12542;50.924;4.516;2023-04-15T00:18:33;12.15;;;5.93;;
24407;SDS011;12542;50.924;4.516;2023-04-15T00:20:59;13.38;;;5.97;;
24407;SDS011;12542;50.924;4.516;2023-04-15T00:23:25;10.95;;;5.72;;
24407;SDS011;12542;50.924;4.516;2023-04-15T00:25:51;9.38;;;5.28;;
24407;SDS011;12542;50.924;4.516;2023-04-15T00:28:17;12.45;;;5.53;;
24407;SDS011;12542;50.924;4.516;2023-04-15T00:30:43;11.57;;;4.97;;
24407;SDS011;12542;50.924;4.516;2023-04-15T00:33:09;10.00;;;5.63;;
24407;SDS011;12542;50.924;4.516;2023-04-15T00:35:36;8.73;;;4.80;;
24407;SDS011;12542;50.924;4.516;2023-04-15T00:38:02;11.77;;;5.70;;
24407;SDS011;12542;50.924;4.516;2023-04-15T00:40:28;8.20;;;4.90;;
24407;SDS011;12542;50.924;4.516;2023-04-15T00:42:54;9.80;;;5.78;;
24407;SDS011;12542;50.924;4.516;2023-04-15T00:45:20;8.95;;;5.03;;
24407;SDS011;12542;50.924;4.516;2023-04-15T00:47:46;10.88;;;4.72;;
24407;SDS011;12542;50.924;4.516;2023-04-15T00:50:14;9.88;;;4.78;;
24407;SDS011;12542;50.924;4.516;2023-04-15T00:52:40;10.88;;;5.32;;
24407;SDS011;12542;50.924;4.516;2023-04-15T00:55:06;11.20;;;5.25;;
24407;SDS011;12542;50.924;4.516;2023-04-15T00:57:32;10.45;;;5.55;;
24407;SDS011;12542;50.924;4.516;2023-04-15T01:00:00;10.00;;;5.40;;
24407;SDS011;12542;50.924;4.516;2023-04-15T01:02:26;9.80;;;4.97;;
24407;SDS011;12542;50.924;4.516;2023-04-15T01:04:52;7.75;;;4.68;;
24407;SDS011;12542;50.924;4.516;2023-04-15T01:07:20;9.35;;;4.53;;
24407;SDS011;12542;50.924;4.516;2023-04-15T01:09:46;10.82;;;5.28;;
24407;SDS011;12542;50.924;4.516;2023-04-15T01:12:13;13.10;;;5.18;;
24407;SDS011;12542;50.924;4.516;2023-04-15T01:14:42;8.30;;;4.78;;
24407;SDS011;12542;50.924;4.516;2023-04-15T01:17:08;10.30;;;5.05;;
24407;SDS011;12542;50.924;4.516;2023-04-15T01:19:36;10.50;;;4.90;;
24407;SDS011;12542;50.924;4.516;2023-04-15T01:22:02;11.02;;;5.15;;
24407;SDS011;12542;50.924;4.516;2023-04-15T01:24:31;8.70;;;4.55;;
24407;SDS011;12542;50.924;4.516;2023-04-15T01:26:59;7.93;;;4.65;;
24407;SDS011;12542;50.924;4.516;2023-04-15T01:29:25;10.57;;;4.78;;
24407;SDS011;12542;50.924;4.516;2023-04-15T01:31:52;8.95;;;4.07;;
24407;SDS011;12542;50.924;4.516;2023-04-15T01:34:18;9.32;;;4.43;;
24407;SDS011;12542;50.924;4.516;2023-04-15T01:36:45;8.32;;;4.43;;
24407;SDS011;12542;50.924;4.516;2023-04-15T01:39:11;8.05;;;3.72;;
24407;SDS011;12542;50.924;4.516;2023-04-15T01:41:37;7.25;;;4.15;;
24407;SDS011;12542;50.924;4.516;2023-04-15T01:44:04;9.18;;;4.50;;
24407;SDS011;12542;50.924;4.516;2023-04-15T01:46:31;6.88;;;3.83;;
24407;SDS011;12542;50.924;4.516;2023-04-15T01:48:56;6.00;;;3.80;;
24407;SDS011;12542;50.924;4.516;2023-04-15T01:51:22;9.73;;;3.90;;
24407;SDS011;12542;50.924;4.516;2023-04-15T01:53:48;6.60;;;3.55;;
24407;SDS011;12542;50.924;4.516;2023-04-15T01:56:13;7.22;;;3.58;;
24407;SDS011;12542;50.924;4.516;2023-04-15T01:58:40;7.60;;;3.67;;
24407;SDS011;12542;50.924;4.516;2023-04-15T02:01:06;9.10;;;4.10;;
24407;SDS011;12542;50.924;4.516;2023-04-15T02:03:32;8.38;;;3.90;;
24407;SDS011;12542;50.924;4.516;2023-04-15T02:05:57;8.10;;;3.97;;
24407;SDS011;12542;50.924;4.516;2023-04-15T02:08:25;6.45;;;3.28;;
24407;SDS011;12542;50.924;4.516;2023-04-15T02:10:51;6.05;;;3.50;;
24407;SDS011;12542;50.924;4.516;2023-04-15T02:13:17;5.10;;;3.33;;
24407;SDS011;12542;50.924;4.516;2023-04-15T02:15:47;7.25;;;4.10;;
24407;SDS011;12542;50.924;4.516;2023-04-15T02:18:14;6.10;;;4.00;;
24407;SDS011;12542;50.924;4.516;2023-04-15T02:20:40;7.80;;;4.15;;
24407;SDS011;12542;50.924;4.516;2023-04-15T02:23:07;7.13;;;4.13;;
24407;SDS011;12542;50.924;4.516;2023-04-15T02:25:35;6.82;;;3.50;;
24407;SDS011;12542;50.924;4.516;2023-04-15T02:28:01;7.28;;;4.10;;
24407;SDS011;12542;50.924;4.516;2023-04-15T02:30:27;7.90;;;4.35;;
24407;SDS011;12542;50.924;4.516;2023-04-15T02:32:52;8.88;;;5.00;;
24407;SDS011;12542;50.924;4.516;2023-04-15T02:35:18;9.95;;;4.55;;
24407;SDS011;12542;50.924;4.516;2023-04-15T02:37:44;11.82;;;5.10;;
24407;SDS011;12542;50.924;4.516;2023-04-15T02:40:10;8.77;;;4.68;;
24407;SDS011;12542;50.924;4.516;2023-04-15T02:42:40;11.20;;;5.20;;
24407;SDS011;12542;50.924;4.516;2023-04-15T02:45:07;11.02;;;5.30;;
24407;SDS011;12542;50.924;4.516;2023-04-15T02:47:35;10.50;;;4.65;;
24407;SDS011;12542;50.924;4.516;2023-04-15T02:50:05;9.60;;;4.80;;
24407;SDS011;12542;50.924;4.516;2023-04-15T02:55:05;8.48;;;4.60;;
24407;SDS011;12542;50.924;4.516;2023-04-15T02:57:32;11.80;;;4.97;;
24407;SDS011;12542;50.924;4.516;2023-04-15T02:59:58;7.60;;;5.40;;
24407;SDS011;12542;50.924;4.516;2023-04-15T03:02:24;9.50;;;5.10;;
24407;SDS011;12542;50.924;4.516;2023-04-15T03:04:50;10.25;;;5.10;;
24407;SDS011;12542;50.924;4.516;2023-04-15T03:07:16;8.00;;;5.18;;
24407;SDS011;12542;50.924;4.516;2023-04-15T03:09:42;8.90;;;5.15;;
24407;SDS011;12542;50.924;4.516;2023-04-15T03:12:08;8.75;;;4.78;;
24407;SDS011;12542;50.924;4.516;2023-04-15T03:14:34;10.13;;;5.03;;
24407;SDS011;12542;50.924;4.516;2023-04-15T03:16:59;9.25;;;4.90;;
24407;SDS011;12542;50.924;4.516;2023-04-15T03:19:25;7.55;;;4.68;;
24407;SDS011;12542;50.924;4.516;2023-04-15T03:21:51;10.32;;;5.30;;
24407;SDS011;12542;50.924;4.516;2023-04-15T03:24:17;7.43;;;4.72;;
24407;SDS011;12542;50.924;4.516;2023-04-15T03:26:43;7.63;;;4.80;;
24407;SDS011;12542;50.924;4.516;2023-04-15T03:29:08;8.77;;;5.50;;
24407;SDS011;12542;50.924;4.516;2023-04-15T03:31:34;8.52;;;5.13;;
24407;SDS011;12542;50.924;4.516;2023-04-15T03:34:00;5.93;;;4.47;;
24407;SDS011;12542;50.924;4.516;2023-04-15T03:36:27;8.70;;;4.82;;
24407;SDS011;12542;50.924;4.516;2023-04-15T03:38:56;9.00;;;5.15;;
24407;SDS011;12542;50.924;4.516;2023-04-15T03:41:22;6.35;;;4.38;;
24407;SDS011;12542;50.924;4.516;2023-04-15T03:43:48;9.80;;;5.25;;
24407;SDS011;12542;50.924;4.516;2023-04-15T03:46:16;7.82;;;4.93;;
24407;SDS011;12542;50.924;4.516;2023-04-15T03:48:42;7.38;;;4.95;;
24407;SDS011;12542;50.924;4.516;2023-04-15T03:51:10;8.85;;;5.40;;
24407;SDS011;12542;50.924;4.516;2023-04-15T03:53:36;7.03;;;4.70;;
24407;SDS011;12542;50.924;4.516;2023-04-15T03:56:02;8.63;;;5.57;;
24407;SDS011;12542;50.924;4.516;2023-04-15T03:58:27;10.25;;;5.53;;
24407;SDS011;12542;50.924;4.516;2023-04-15T04:00:53;8.15;;;5.20;;
24407;SDS011;12542;50.924;4.516;2023-04-15T04:03:19;9.30;;;5.15;;
24407;SDS011;12542;50.924;4.516;2023-04-15T04:05:45;9.23;;;4.75;;
24407;SDS011;12542;50.924;4.516;2023-04-15T04:08:11;7.97;;;4.47;;
24407;SDS011;12542;50.924;4.516;2023-04-15T04:10:40;8.43;;;4.78;;
24407;SDS011;12542;50.924;4.516;2023-04-15T04:13:06;8.18;;;5.07;;
24407;SDS011;12542;50.924;4.516;2023-04-15T04:15:32;9.25;;;4.90;;
24407;SDS011;12542;50.924;4.516;2023-04-15T04:17:58;8.05;;;4.65;;
24407;SDS011;12542;50.924;4.516;2023-04-15T04:20:23;9.95;;;4.90;;
24407;SDS011;12542;50.924;4.516;2023-04-15T04:22:49;6.63;;;4.40;;
24407;SDS011;12542;50.924;4.516;2023-04-15T04:25:15;9.40;;;4.65;;
24407;SDS011;12542;50.924;4.516;2023-04-15T04:27:41;10.65;;;5.00;;
24407;SDS011;12542;50.924;4.516;2023-04-15T04:30:07;8.63;;;4.88;;
24407;SDS011;12542;50.924;4.516;2023-04-15T04:32:33;9.98;;;5.13;;
24407;SDS011;12542;50.924;4.516;2023-04-15T04:34:59;9.23;;;4.50;;
24407;SDS011;12542;50.924;4.516;2023-04-15T04:37:25;11.13;;;5.32;;
24407;SDS011;12542;50.924;4.516;2023-04-15T04:39:51;9.05;;;4.60;;
24407;SDS011;12542;50.924;4.516;2023-04-15T04:42:17;9.75;;;5.07;;
24407;SDS011;12542;50.924;4.516;2023-04-15T04:44:43;9.73;;;4.93;;
24407;SDS011;12542;50.924;4.516;2023-04-15T04:47:09;10.52;;;4.53;;
24407;SDS011;12542;50.924;4.516;2023-04-15T04:49:35;13.95;;;5.65;;
24407;SDS011;12542;50.924;4.516;2023-04-15T04:52:01;11.07;;;4.80;;
24407;SDS011;12542;50.924;4.516;2023-04-15T04:54:26;10.02;;;4.68;;
24407;SDS011;12542;50.924;4.516;2023-04-15T04:56:52;8.80;;;5.03;;
24407;SDS011;12542;50.924;4.516;2023-04-15T04:59:18;8.63;;;4.82;;
24407;SDS011;12542;50.924;4.516;2023-04-15T05:01:43;8.65;;;4.55;;
24407;SDS011;12542;50.924;4.516;2023-04-15T05:04:09;10.82;;;4.80;;
24407;SDS011;12542;50.924;4.516;2023-04-15T05:06:35;9.52;;;4.75;;
24407;SDS011;12542;50.924;4.516;2023-04-15T05:09:01;7.30;;;4.88;;
24407;SDS011;12542;50.924;4.516;2023-04-15T05:11:27;10.25;;;5.53;;
24407;SDS011;12542;50.924;4.516;2023-04-15T05:13:53;8.50;;;4.70;;
24407;SDS011;12542;50.924;4.516;2023-04-15T05:16:23;11.45;;;5.00;;
24407;SDS011;12542;50.924;4.516;2023-04-15T05:18:49;10.02;;;4.97;;
24407;SDS011;12542;50.924;4.516;2023-04-15T05:21:15;8.98;;;4.60;;
24407;SDS011;12542;50.924;4.516;2023-04-15T05:23:43;9.95;;;5.25;;
24407;SDS011;12542;50.924;4.516;2023-04-15T05:26:08;10.68;;;4.80;;
24407;SDS011;12542;50.924;4.516;2023-04-15T05:28:35;14.55;;;4.97;;
24407;SDS011;12542;50.924;4.516;2023-04-15T05:31:01;10.02;;;5.25;;
24407;SDS011;12542;50.924;4.516;2023-04-15T05:33:28;13.90;;;4.90;;
24407;SDS011;12542;50.924;4.516;2023-04-15T05:35:53;13.32;;;5.32;;
24407;SDS011;12542;50.924;4.516;2023-04-15T05:38:19;10.80;;;5.28;;
24407;SDS011;12542;50.924;4.516;2023-04-15T05:40:45;10.23;;;4.97;;
24407;SDS011;12542;50.924;4.516;2023-04-15T05:43:11;12.80;;;5.38;;
24407;SDS011;12542;50.924;4.516;2023-04-15T05:45:36;13.35;;;5.25;;
24407;SDS011;12542;50.924;4.516;2023-04-15T05:48:02;13.52;;;5.53;;
24407;SDS011;12542;50.924;4.516;2023-04-15T05:50:28;9.73;;;4.95;;
24407;SDS011;12542;50.924;4.516;2023-04-15T05:52:53;9.00;;;4.72;;
24407;SDS011;12542;50.924;4.516;2023-04-15T05:55:20;10.50;;;4.95;;
24407;SDS011;12542;50.924;4.516;2023-04-15T05:57:46;13.63;;;5.55;;
24407;SDS011;12542;50.924;4.516;2023-04-15T06:00:12;11.15;;;5.65;;
24407;SDS011;12542;50.924;4.516;2023-04-15T06:02:40;13.23;;;5.47;;
24407;SDS011;12542;50.924;4.516;2023-04-15T06:05:06;11.05;;;5.15;;
24407;SDS011;12542;50.924;4.516;2023-04-15T06:07:36;10.07;;;5.13;;
24407;SDS011;12542;50.924;4.516;2023-04-15T06:10:02;9.23;;;4.68;;
24407;SDS011;12542;50.924;4.516;2023-04-15T06:12:28;7.93;;;4.80;;
24407;SDS011;12542;50.924;4.516;2023-04-15T06:14:54;14.73;;;5.25;;
24407;SDS011;12542;50.924;4.516;2023-04-15T06:17:20;10.90;;;5.07;;
24407;SDS011;12542;50.924;4.516;2023-04-15T06:19:47;11.90;;;6.25;;
24407;SDS011;12542;50.924;4.516;2023-04-15T06:22:21;12.15;;;5.65;;
24407;SDS011;12542;50.924;4.516;2023-04-15T06:24:47;8.98;;;4.90;;
24407;SDS011;12542;50.924;4.516;2023-04-15T06:27:17;9.70;;;5.00;;
24407;SDS011;12542;50.924;4.516;2023-04-15T06:29:42;12.65;;;5.40;;
24407;SDS011;12542;50.924;4.516;2023-04-15T06:32:09;9.63;;;5.60;;
24407;SDS011;12542;50.924;4.516;2023-04-15T06:34:38;9.80;;;5.20;;
24407;SDS011;12542;50.924;4.516;2023-04-15T06:37:04;12.45;;;5.53;;
24407;SDS011;12542;50.924;4.516;2023-04-15T06:39:30;14.60;;;5.28;;
24407;SDS011;12542;50.924;4.516;2023-04-15T06:41:56;9.10;;;5.10;;
24407;SDS011;12542;50.924;4.516;2023-04-15T06:44:22;9.57;;;5.15;;
24407;SDS011;12542;50.924;4.516;2023-04-15T06:46:47;12.55;;;6.15;;
24407;SDS011;12542;50.924;4.516;2023-04-15T06:49:13;11.88;;;5.53;;
24407;SDS011;12542;50.924;4.516;2023-04-15T06:51:41;9.68;;;4.93;;
24407;SDS011;12542;50.924;4.516;2023-04-15T06:54:07;16.50;;;5.40;;
24407;SDS011;12542;50.924;4.516;2023-04-15T06:56:32;9.93;;;5.07;;
24407;SDS011;12542;50.924;4.516;2023-04-15T06:58:58;11.55;;;5.47;;
24407;SDS011;12542;50.924;4.516;2023-04-15T07:01:26;15.40;;;6.25;;
24407;SDS011;12542;50.924;4.516;2023-04-15T07:03:55;12.70;;;5.70;;
24407;SDS011;12542;50.924;4.516;2023-04-15T07:06:21;12.68;;;5.53;;
24407;SDS011;12542;50.924;4.516;2023-04-15T07:08:46;12.38;;;6.47;;
24407;SDS011;12542;50.924;4.516;2023-04-15T07:11:12;12.50;;;6.60;;
24407;SDS011;12542;50.924;4.516;2023-04-15T07:13:38;11.45;;;5.63;;
24407;SDS011;12542;50.924;4.516;2023-04-15T07:16:04;10.13;;;6.00;;
24407;SDS011;12542;50.924;4.516;2023-04-15T07:18:33;10.52;;;6.43;;
24407;SDS011;12542;50.924;4.516;2023-04-15T07:20:59;10.32;;;6.35;;
24407;SDS011;12542;50.924;4.516;2023-04-15T07:23:25;13.90;;;6.45;;
24407;SDS011;12542;50.924;4.516;2023-04-15T07:25:51;11.98;;;6.35;;
24407;SDS011;12542;50.924;4.516;2023-04-15T07:28:17;12.45;;;6.43;;
24407;SDS011;12542;50.924;4.516;2023-04-15T07:30:43;15.60;;;6.70;;
24407;SDS011;12542;50.924;4.516;2023-04-15T07:33:09;12.65;;;6.18;;
24407;SDS011;12542;50.924;4.516;2023-04-15T07:35:37;16.73;;;7.85;;
24407;SDS011;12542;50.924;4.516;2023-04-15T07:38:03;11.85;;;7.30;;
24407;SDS011;12542;50.924;4.516;2023-04-15T07:40:30;12.88;;;7.38;;
24407;SDS011;12542;50.924;4.516;2023-04-15T07:42:57;13.73;;;7.70;;
24407;SDS011;12542;50.924;4.516;2023-04-15T07:45:23;17.73;;;8.15;;
24407;SDS011;12542;50.924;4.516;2023-04-15T07:47:49;14.82;;;8.60;;
24407;SDS011;12542;50.924;4.516;2023-04-15T07:50:17;12.82;;;8.40;;
24407;SDS011;12542;50.924;4.516;2023-04-15T07:52:43;15.23;;;8.57;;
24407;SDS011;12542;50.924;4.516;2023-04-15T07:55:09;16.63;;;8.50;;
24407;SDS011;12542;50.924;4.516;2023-04-15T07:57:36;15.85;;;8.10;;
24407;SDS011;12542;50.924;4.516;2023-04-15T08:00:03;18.60;;;7.90;;
24407;SDS011;12542;50.924;4.516;2023-04-15T08:02:29;14.18;;;8.73;;
24407;SDS011;12542;50.924;4.516;2023-04-15T08:04:55;15.52;;;9.13;;
24407;SDS011;12542;50.924;4.516;2023-04-15T08:07:22;15.10;;;8.80;;
24407;SDS011;12542;50.924;4.516;2023-04-15T08:09:47;16.52;;;8.55;;
24407;SDS011;12542;50.924;4.516;2023-04-15T08:12:13;16.00;;;9.45;;
24407;SDS011;12542;50.924;4.516;2023-04-15T08:14:40;15.95;;;9.68;;
24407;SDS011;12542;50.924;4.516;2023-04-15T08:17:07;10.73;;;8.10;;
24407;SDS011;12542;50.924;4.516;2023-04-15T08:19:32;14.75;;;8.90;;
24407;SDS011;12542;50.924;4.516;2023-04-15T08:21:58;16.35;;;9.20;;
24407;SDS011;12542;50.924;4.516;2023-04-15T08:24:26;16.70;;;8.93;;
24407;SDS011;12542;50.924;4.516;2023-04-15T08:26:53;15.38;;;8.48;;
24407;SDS011;12542;50.924;4.516;2023-04-15T08:29:18;15.18;;;8.70;;
24407;SDS011;12542;50.924;4.516;2023-04-15T08:31:44;16.02;;;8.80;;
24407;SDS011;12542;50.924;4.516;2023-04-15T08:34:11;11.88;;;8.05;;
24407;SDS011;12542;50.924;4.516;2023-04-15T08:36:41;13.63;;;7.40;;
24407;SDS011;12542;50.924;4.516;2023-04-15T08:39:07;15.10;;;7.85;;
24407;SDS011;12542;50.924;4.516;2023-04-15T08:41:33;13.88;;;6.80;;
24407;SDS011;12542;50.924;4.516;2023-04-15T08:44:05;10.85;;;5.85;;
24407;SDS011;12542;50.924;4.516;2023-04-15T08:46:31;12.07;;;6.57;;
24407;SDS011;12542;50.924;4.516;2023-04-15T08:48:59;9.05;;;5.38;;
24407;SDS011;12542;50.924;4.516;2023-04-15T08:51:27;11.57;;;5.80;;
24407;SDS011;12542;50.924;4.516;2023-04-15T08:53:55;10.88;;;5.75;;
24407;SDS011;12542;50.924;4.516;2023-04-15T08:56:24;10.30;;;6.35;;
24407;SDS011;12542;50.924;4.516;2023-04-15T08:58:51;10.30;;;6.10;;
24407;SDS011;12542;50.924;4.516;2023-04-15T09:01:17;15.95;;;6.35;;
24407;SDS011;12542;50.924;4.516;2023-04-15T09:03:43;10.73;;;6.22;;
24407;SDS011;12542;50.924;4.516;2023-04-15T09:06:11;9.57;;;6.32;;
24407;SDS011;12542;50.924;4.516;2023-04-15T09:08:38;10.40;;;5.10;;
24407;SDS011;12542;50.924;4.516;2023-04-15T09:11:04;9.43;;;5.43;;
24407;SDS011;12542;50.924;4.516;2023-04-15T09:13:30;11.18;;;5.47;;
24407;SDS011;12542;50.924;4.516;2023-04-15T09:15:56;8.68;;;5.60;;
24407;SDS011;12542;50.924;4.516;2023-04-15T09:18:29;8.57;;;5.25;;
24407;SDS011;12542;50.924;4.516;2023-04-15T09:20:55;7.50;;;5.15;;
24407;SDS011;12542;50.924;4.516;2023-04-15T09:23:29;9.25;;;5.85;;
24407;SDS011;12542;50.924;4.516;2023-04-15T09:25:56;7.82;;;4.80;;
24407;SDS011;12542;50.924;4.516;2023-04-15T09:28:24;11.88;;;5.53;;
24407;SDS011;12542;50.924;4.516;2023-04-15T09:30:51;9.93;;;3.40;;
24407;SDS011;12542;50.924;4.516;2023-04-15T09:33:22;7.47;;;4.40;;
24407;SDS011;12542;50.924;4.516;2023-04-15T09:35:55;6.80;;;4.65;;
24407;SDS011;12542;50.924;4.516;2023-04-15T09:38:23;10.45;;;4.75;;
24407;SDS011;12542;50.924;4.516;2023-04-15T09:40:48;8.82;;;5.07;;
24407;SDS011;12542;50.924;4.516;2023-04-15T09:43:14;9.50;;;5.18;;
24407;SDS011;12542;50.924;4.516;2023-04-15T09:45:53;7.22;;;5.28;;
24407;SDS011;12542;50.924;4.516;2023-04-15T09:48:20;7.85;;;4.95;;
24407;SDS011;12542;50.924;4.516;2023-04-15T09:50:47;7.38;;;4.30;;
24407;SDS011;12542;50.924;4.516;2023-04-15T09:53:17;8.27;;;5.07;;
24407;SDS011;12542;50.924;4.516;2023-04-15T09:55:54;7.32;;;4.78;;
24407;SDS011;12542;50.924;4.516;2023-04-15T09:58:22;7.53;;;4.90;;
24407;SDS011;12542;50.924;4.516;2023-04-15T10:00:50;6.75;;;4.50;;
24407;SDS011;12542;50.924;4.516;2023-04-15T10:03:20;8.95;;;4.57;;
24407;SDS011;12542;50.924;4.516;2023-04-15T10:05:57;6.55;;;4.38;;
24407;SDS011;12542;50.924;4.516;2023-04-15T10:08:27;5.20;;;3.58;;
24407;SDS011;12542;50.924;4.516;2023-04-15T10:10:56;9.23;;;3.97;;
24407;SDS011;12542;50.924;4.516;2023-04-15T10:13:23;9.13;;;3.83;;
24407;SDS011;12542;50.924;4.516;2023-04-15T10:16:13;10.07;;;4.63;;
24407;SDS011;12542;50.924;4.516;2023-04-15T10:18:42;9.85;;;3.47;;
24407;SDS011;12542;50.924;4.516;2023-04-15T10:21:09;7.82;;;3.00;;
24407;SDS011;12542;50.924;4.516;2023-04-15T10:23:35;7.82;;;3.53;;
24407;SDS011;12542;50.924;4.516;2023-04-15T10:26:03;8.20;;;3.53;;
24407;SDS011;12542;50.924;4.516;2023-04-15T10:28:30;7.55;;;3.40;;
24407;SDS011;12542;50.924;4.516;2023-04-15T10:30:56;8.43;;;2.20;;
24407;SDS011;12542;50.924;4.516;2023-04-15T10:33:23;3.45;;;2.15;;
24407;SDS011;12542;50.924;4.516;2023-04-15T10:35:51;9.15;;;3.28;;
24407;SDS011;12542;50.924;4.516;2023-04-15T10:43:47;5.30;;;2.85;;
24407;SDS011;12542;50.924;4.516;2023-04-15T10:46:22;5.88;;;2.33;;
24407;SDS011;12542;50.924;4.516;2023-04-15T10:48:59;2.75;;;1.75;;
24407;SDS011;12542;50.924;4.516;2023-04-15T10:51:50;3.95;;;2.25;;
24407;SDS011;12542;50.924;4.516;2023-04-15T10:54:30;4.03;;;2.55;;
24407;SDS011;12542;50.924;4.516;2023-04-15T10:59:32;5.10;;;3.58;;
24407;SDS011;12542;50.924;4.516;2023-04-15T11:02:02;7.28;;;3.70;;
24407;SDS011;12542;50.924;4.516;2023-04-15T11:12:45;3.83;;;2.10;;
24407;SDS011;12542;50.924;4.516;2023-04-15T11:18:10;5.13;;;2.70;;
24407;SDS011;12542;50.924;4.516;2023-04-15T11:20:38;5.70;;;2.17;;
24407;SDS011;12542;50.924;4.516;2023-04-15T11:23:08;3.65;;;2.25;;
24407;SDS011;12542;50.924;4.516;2023-04-15T11:25:37;3.05;;;1.75;;
24407;SDS011;12542;50.924;4.516;2023-04-15T11:28:03;5.13;;;2.50;;
24407;SDS011;12542;50.924;4.516;2023-04-15T11:30:31;6.07;;;3.20;;
24407;SDS011;12542;50.924;4.516;2023-04-15T11:32:59;4.63;;;2.70;;
24407;SDS011;12542;50.924;4.516;2023-04-15T11:35:27;4.15;;;2.33;;
24407;SDS011;12542;50.924;4.516;2023-04-15T11:37:53;3.95;;;2.03;;
24407;SDS011;12542;50.924;4.516;2023-04-15T11:40:24;3.60;;;2.20;;
24407;SDS011;12542;50.924;4.516;2023-04-15T11:43:09;4.00;;;2.20;;
24407;SDS011;12542;50.924;4.516;2023-04-15T11:45:56;3.53;;;1.75;;
24407;SDS011;12542;50.924;4.516;2023-04-15T11:48:24;3.83;;;2.00;;
24407;SDS011;12542;50.924;4.516;2023-04-15T11:53:24;4.78;;;2.20;;
24407;SDS011;12542;50.924;4.516;2023-04-15T11:56:06;3.83;;;2.00;;
24407;SDS011;12542;50.924;4.516;2023-04-15T11:58:41;3.58;;;2.05;;
24407;SDS011;12542;50.924;4.516;2023-04-15T12:01:10;2.55;;;1.75;;
24407;SDS011;12542;50.924;4.516;2023-04-15T12:03:41;4.25;;;2.03;;
24407;SDS011;12542;50.924;4.516;2023-04-15T12:11:20;4.28;;;2.30;;
24407;SDS011;12542;50.924;4.516;2023-04-15T12:13:48;6.80;;;2.75;;
24407;SDS011;12542;50.924;4.516;2023-04-15T12:16:18;4.28;;;2.30;;
24407;SDS011;12542;50.924;4.516;2023-04-15T12:18:50;5.78;;;2.40;;
24407;SDS011;12542;50.924;4.516;2023-04-15T12:21:20;3.67;;;1.63;;
24407;SDS011;12542;50.924;4.516;2023-04-15T12:23:51;2.63;;;1.40;;
24407;SDS011;12542;50.924;4.516;2023-04-15T12:27:20;3.92;;;2.10;;
24407;SDS011;12542;50.924;4.516;2023-04-15T12:29:24;3.53;;;1.70;;
24407;SDS011;12542;50.924;4.516;2023-04-15T12:31:55;3.53;;;1.40;;
24407;SDS011;12542;50.924;4.516;2023-04-15T12:34:32;3.38;;;1.70;;
24407;SDS011;12542;50.924;4.516;2023-04-15T12:37:01;3.58;;;2.08;;
24407;SDS011;12542;50.924;4.516;2023-04-15T12:39:30;4.55;;;1.90;;
24407;SDS011;12542;50.924;4.516;2023-04-15T12:41:57;4.63;;;1.65;;
24407;SDS011;12542;50.924;4.516;2023-04-15T12:44:24;3.58;;;2.20;;
24407;SDS011;12542;50.924;4.516;2023-04-15T12:46:50;4.60;;;1.73;;
24407;SDS011;12542;50.924;4.516;2023-04-15T12:49:17;3.97;;;1.17;;
24407;SDS011;12542;50.924;4.516;2023-04-15T12:51:45;2.85;;;1.55;;
24407;SDS011;12542;50.924;4.516;2023-04-15T12:54:14;4.30;;;1.20;;
24407;SDS011;12542;50.924;4.516;2023-04-15T12:56:41;1.90;;;1.00;;
24407;SDS011;12542;50.924;4.516;2023-04-15T12:59:08;3.25;;;1.33;;
24407;SDS011;12542;50.924;4.516;2023-04-15T13:01:36;4.47;;;1.58;;
24407;SDS011;12542;50.924;4.516;2023-04-15T13:04:05;4.50;;;2.35;;
24407;SDS011;12542;50.924;4.516;2023-04-15T13:06:32;3.40;;;2.03;;
24407;SDS011;12542;50.924;4.516;2023-04-15T13:08:58;6.88;;;1.98;;
24407;SDS011;12542;50.924;4.516;2023-04-15T13:11:25;4.75;;;2.13;;
24407;SDS011;12542;50.924;4.516;2023-04-15T13:13:54;4.82;;;2.58;;
24407;SDS011;12542;50.924;4.516;2023-04-15T13:16:27;3.63;;;1.90;;
24407;SDS011;12542;50.924;4.516;2023-04-15T13:18:52;6.00;;;2.53;;
24407;SDS011;12542;50.924;4.516;2023-04-15T13:21:18;4.65;;;1.90;;
24407;SDS011;12542;50.924;4.516;2023-04-15T13:23:44;6.78;;;2.67;;
24407;SDS011;12542;50.924;4.516;2023-04-15T13:26:11;4.18;;;2.33;;
24407;SDS011;12542;50.924;4.516;2023-04-15T13:28:37;2.35;;;1.73;;
24407;SDS011;12542;50.924;4.516;2023-04-15T13:31:04;4.00;;;2.40;;
24407;SDS011;12542;50.924;4.516;2023-04-15T13:33:30;4.90;;;2.42;;
24407;SDS011;12542;50.924;4.516;2023-04-15T13:35:55;5.22;;;1.88;;
24407;SDS011;12542;50.924;4.516;2023-04-15T13:38:21;5.75;;;2.00;;
24407;SDS011;12542;50.924;4.516;2023-04-15T13:40:49;8.90;;;2.33;;
24407;SDS011;12542;50.924;4.516;2023-04-15T13:43:15;5.43;;;2.08;;
24407;SDS011;12542;50.924;4.516;2023-04-15T13:45:41;4.88;;;2.28;;
24407;SDS011;12542;50.924;4.516;2023-04-15T13:48:08;7.53;;;1.70;;
24407;SDS011;12542;50.924;4.516;2023-04-15T13:50:34;3.47;;;1.77;;
24407;SDS011;12542;50.924;4.516;2023-04-15T13:53:00;5.00;;;1.80;;
24407;SDS011;12542;50.924;4.516;2023-04-15T13:55:26;4.82;;;1.70;;
24407;SDS011;12542;50.924;4.516;2023-04-15T13:57:53;6.07;;;1.98;;
24407;SDS011;12542;50.924;4.516;2023-04-15T14:00:18;5.18;;;1.80;;
24407;SDS011;12542;50.924;4.516;2023-04-15T14:02:44;4.50;;;1.83;;
24407;SDS011;12542;50.924;4.516;2023-04-15T14:05:10;4.65;;;1.50;;
24407;SDS011;12542;50.924;4.516;2023-04-15T14:07:36;4.47;;;1.73;;
24407;SDS011;12542;50.924;4.516;2023-04-15T14:10:02;3.17;;;1.42;;
24407;SDS011;12542;50.924;4.516;2023-04-15T14:12:28;3.70;;;1.08;;
24407;SDS011;12542;50.924;4.516;2023-04-15T14:14:54;2.20;;;0.85;;
24407;SDS011;12542;50.924;4.516;2023-04-15T14:17:22;2.80;;;0.65;;
24407;SDS011;12542;50.924;4.516;2023-04-15T14:19:48;2.25;;;0.60;;
24407;SDS011;12542;50.924;4.516;2023-04-15T14:22:14;3.55;;;0.50;;
24407;SDS011;12542;50.924;4.516;2023-04-15T14:24:40;2.75;;;0.63;;
24407;SDS011;12542;50.924;4.516;2023-04-15T14:27:06;2.72;;;0.55;;
24407;SDS011;12542;50.924;4.516;2023-04-15T14:29:36;4.90;;;1.08;;
24407;SDS011;12542;50.924;4.516;2023-04-15T14:32:02;3.83;;;0.80;;
24407;SDS011;12542;50.924;4.516;2023-04-15T14:34:28;4.20;;;0.90;;
24407;SDS011;12542;50.924;4.516;2023-04-15T14:36:53;2.08;;;0.70;;
24407;SDS011;12542;50.924;4.516;2023-04-15T14:39:19;2.35;;;0.85;;
24407;SDS011;12542;50.924;4.516;2023-04-15T14:41:45;3.58;;;1.23;;
24407;SDS011;12542;50.924;4.516;2023-04-15T14:44:11;1.92;;;1.20;;
24407;SDS011;12542;50.924;4.516;2023-04-15T14:46:37;1.92;;;1.13;;
24407;SDS011;12542;50.924;4.516;2023-04-15T14:49:04;5.65;;;1.40;;
24407;SDS011;12542;50.924;4.516;2023-04-15T14:51:30;6.07;;;1.73;;
24407;SDS011;12542;50.924;4.516;2023-04-15T14:53:56;2.92;;;1.38;;
24407;SDS011;12542;50.924;4.516;2023-04-15T14:56:22;3.88;;;1.67;;
24407;SDS011;12542;50.924;4.516;2023-04-15T14:58:48;3.10;;;1.83;;
24407;SDS011;12542;50.924;4.516;2023-04-15T15:01:14;7.22;;;1.50;;
24407;SDS011;12542;50.924;4.516;2023-04-15T15:03:40;3.20;;;1.50;;
24407;SDS011;12542;50.924;4.516;2023-04-15T15:06:08;3.13;;;1.70;;
24407;SDS011;12542;50.924;4.516;2023-04-15T15:08:35;6.05;;;2.00;;
24407;SDS011;12542;50.924;4.516;2023-04-15T15:11:01;4.38;;;1.65;;
24407;SDS011;12542;50.924;4.516;2023-04-15T15:13:26;3.75;;;2.08;;